createdAt,value
2022-11-25T00:01:07.777Z,20.77
2022-11-25T00:03:36.404Z,33.07
2022-11-25T00:06:13.058Z,26.60
2022-11-25T00:08:41.783Z,21.50
2022-11-25T00:11:11.255Z,25.45
2022-11-25T00:13:41.432Z,22.50
2022-11-25T00:16:11.435Z,21.80
2022-11-25T00:18:40.074Z,30.33
2022-11-25T00:21:09.524Z,25.38
2022-11-25T00:23:38.213Z,20.80
2022-11-25T00:26:10.406Z,20.25
2022-11-25T00:28:40.408Z,19.75
2022-11-25T00:31:12.235Z,21.35
2022-11-25T00:33:40.494Z,20.97
2022-11-25T00:36:15.024Z,21.50
2022-11-25T00:38:43.112Z,20.67
2022-11-25T00:41:28.953Z,21.95
2022-11-25T00:44:15.642Z,22.10
2022-11-25T00:46:44.119Z,18.83
2022-11-25T00:49:11.862Z,19.63
2022-11-25T00:51:39.643Z,18.27
2022-11-25T00:54:07.773Z,18.05
2022-11-25T00:56:35.546Z,17.00
2022-11-25T00:59:04.917Z,22.60
2022-11-25T01:01:33.038Z,20.67
2022-11-25T01:04:03.134Z,19.70
2022-11-25T01:06:31.024Z,17.80
2022-11-25T01:08:58.732Z,23.03
2022-11-25T01:11:26.666Z,17.47
2022-11-25T01:14:00.951Z,20.70
2022-11-25T01:16:31.523Z,20.33
2022-11-25T01:19:00.551Z,16.45
2022-11-25T01:21:31.229Z,20.53
2022-11-25T01:24:01.097Z,23.13
2022-11-25T01:26:30.005Z,23.13
2022-11-25T01:29:00.339Z,16.75
2022-11-25T01:31:31.758Z,19.40
2022-11-25T01:34:00.986Z,22.02
2022-11-25T01:36:29.468Z,23.00
2022-11-25T01:38:58.687Z,22.02
2022-11-25T01:41:28.713Z,17.35
2022-11-25T01:44:08.761Z,19.37
2022-11-25T01:46:49.778Z,20.40
2022-11-25T01:49:20.808Z,19.17
2022-11-25T01:51:54.462Z,15.83
2022-11-25T01:54:27.169Z,17.47
2022-11-25T01:57:00.151Z,15.77
2022-11-25T01:59:30.510Z,16.20
2022-11-25T02:02:00.294Z,15.93
2022-11-25T02:04:33.703Z,18.40
2022-11-25T02:07:10.680Z,24.70
2022-11-25T02:09:42.182Z,15.33
2022-11-25T02:12:10.940Z,18.63
2022-11-25T02:14:39.020Z,14.07
2022-11-25T02:17:08.169Z,13.68
2022-11-25T02:19:50.834Z,13.98
2022-11-25T02:22:24.973Z,13.83
2022-11-25T02:24:57.609Z,20.77
2022-11-25T02:27:26.710Z,15.88
2022-11-25T02:29:55.302Z,16.83
2022-11-25T02:32:23.903Z,19.38
2022-11-25T02:34:51.925Z,18.92
2022-11-25T02:37:23.590Z,15.60
2022-11-25T02:39:53.498Z,15.05
2022-11-25T02:42:23.877Z,15.18
2022-11-25T02:44:53.253Z,15.50
2022-11-25T02:47:21.504Z,14.20
2022-11-25T02:49:49.177Z,15.85
2022-11-25T02:52:16.829Z,15.90
2022-11-25T02:54:44.584Z,15.75
2022-11-25T02:57:12.393Z,15.50
2022-11-25T02:59:40.081Z,13.10
2022-11-25T03:02:10.307Z,15.95
2022-11-25T03:04:38.813Z,15.77
2022-11-25T03:07:06.735Z,12.63
2022-11-25T03:09:34.420Z,14.57
2022-11-25T03:12:21.155Z,13.70
2022-11-25T03:14:53.821Z,16.90
2022-11-25T03:17:23.163Z,13.38
2022-11-25T03:19:50.877Z,17.80
2022-11-25T03:22:18.470Z,15.17
2022-11-25T03:24:46.179Z,13.30
2022-11-25T03:27:13.906Z,13.20
2022-11-25T03:29:42.485Z,15.65
2022-11-25T03:32:10.425Z,22.40
2022-11-25T03:34:40.568Z,14.43
2022-11-25T03:37:09.294Z,12.48
2022-11-25T03:39:38.185Z,14.13
2022-11-25T03:42:07.825Z,19.15
2022-11-25T03:44:35.735Z,15.03
2022-11-25T03:47:03.818Z,15.43
2022-11-25T03:49:31.812Z,18.00
2022-11-25T03:52:01.758Z,14.87
2022-11-25T03:54:29.764Z,17.30
2022-11-25T03:57:18.389Z,17.25
2022-11-25T03:59:46.140Z,16.52
2022-11-25T04:02:15.373Z,16.90
2022-11-25T04:04:43.442Z,16.05
2022-11-25T04:07:12.628Z,12.50
2022-11-25T04:09:41.534Z,12.93
2022-11-25T04:12:28.171Z,13.98
2022-11-25T04:15:06.037Z,13.68
2022-11-25T04:17:34.038Z,15.15
2022-11-25T04:20:02.150Z,11.25
2022-11-25T04:22:32.242Z,12.25
2022-11-25T04:25:01.764Z,12.38
2022-11-25T04:27:30.367Z,13.43
2022-11-25T04:29:58.565Z,13.63
2022-11-25T04:32:27.449Z,12.82
2022-11-25T04:34:55.337Z,11.63
2022-11-25T04:37:23.772Z,12.33
2022-11-25T04:39:53.292Z,11.13
2022-11-25T04:42:34.511Z,14.75
2022-11-25T04:45:22.404Z,11.73
2022-11-25T04:47:51.222Z,13.02
2022-11-25T04:50:22.357Z,10.38
2022-11-25T04:53:00.296Z,10.13
2022-11-25T04:55:30.017Z,12.05
2022-11-25T04:57:59.413Z,14.23
2022-11-25T05:00:26.612Z,13.50
2022-11-25T05:02:54.756Z,11.45
2022-11-25T05:05:24.486Z,10.65
2022-11-25T05:07:52.359Z,11.32
2022-11-25T05:10:22.066Z,11.15
2022-11-25T05:12:52.771Z,13.10
2022-11-25T05:15:23.160Z,12.57
2022-11-25T05:17:50.889Z,13.48
2022-11-25T05:20:28.951Z,10.38
2022-11-25T05:22:57.091Z,15.82
2022-11-25T05:25:26.680Z,7.70
2022-11-25T05:28:15.946Z,10.70
2022-11-25T05:30:45.347Z,10.43
2022-11-25T05:33:13.648Z,10.73
2022-11-25T05:35:41.681Z,11.23
2022-11-25T05:38:10.224Z,11.77
2022-11-25T05:40:38.817Z,12.73
2022-11-25T05:43:11.648Z,10.90
2022-11-25T05:45:42.588Z,11.25
2022-11-25T05:48:12.223Z,11.93
2022-11-25T05:50:40.168Z,15.23
2022-11-25T05:53:18.219Z,10.90
2022-11-25T05:55:56.193Z,14.15
2022-11-25T05:58:41.815Z,11.02
2022-11-25T06:01:14.102Z,12.13
2022-11-25T06:03:42.566Z,12.95
2022-11-25T06:06:11.896Z,14.57
2022-11-25T06:08:40.345Z,10.50
2022-11-25T06:11:11.772Z,14.50
2022-11-25T06:13:39.684Z,9.77
2022-11-25T06:16:08.677Z,12.32
2022-11-25T06:18:38.482Z,11.80
2022-11-25T06:21:10.210Z,11.98
2022-11-25T06:23:39.140Z,11.88
2022-11-25T06:26:08.939Z,11.63
2022-11-25T06:28:37.524Z,12.80
2022-11-25T06:31:07.617Z,12.20
2022-11-25T06:33:42.549Z,10.00
2022-11-25T06:36:16.978Z,10.95
2022-11-25T06:38:45.330Z,9.98
2022-11-25T06:41:13.572Z,9.80
2022-11-25T06:43:41.525Z,14.70
2022-11-25T06:46:10.909Z,16.13
2022-11-25T06:48:39.318Z,10.20
2022-11-25T06:51:11.031Z,11.27
2022-11-25T06:53:39.609Z,10.90
2022-11-25T06:56:10.225Z,11.85
2022-11-25T06:58:38.946Z,12.07
2022-11-25T07:01:08.975Z,14.43
2022-11-25T07:03:36.997Z,10.40
2022-11-25T07:06:05.122Z,10.38
2022-11-25T07:08:34.994Z,15.15
2022-11-25T07:11:07.710Z,11.35
2022-11-25T07:13:35.601Z,14.10
2022-11-25T07:16:04.492Z,14.65
2022-11-25T07:18:33.723Z,13.00
2022-11-25T07:21:07.022Z,16.30
2022-11-25T07:23:37.089Z,12.55
2022-11-25T07:26:06.447Z,15.98
2022-11-25T07:28:34.827Z,11.10
2022-11-25T07:31:23.422Z,13.85
2022-11-25T07:33:57.293Z,17.08
2022-11-25T07:36:25.310Z,13.43
2022-11-25T07:38:54.857Z,12.15
2022-11-25T07:41:24.541Z,11.90
2022-11-25T07:43:54.085Z,13.85
2022-11-25T07:46:27.366Z,12.63
2022-11-25T07:48:57.347Z,9.00
2022-11-25T07:51:27.455Z,9.02
2022-11-25T07:53:57.803Z,12.57
2022-11-25T07:56:25.908Z,11.60
2022-11-25T07:58:53.795Z,10.93
2022-11-25T08:01:21.714Z,12.82
2022-11-25T08:03:51.201Z,10.88
2022-11-25T08:06:21.233Z,11.52
2022-11-25T08:08:49.253Z,14.63
2022-11-25T08:11:20.858Z,12.02
2022-11-25T08:13:49.258Z,11.95
2022-11-25T08:16:19.482Z,14.00
2022-11-25T08:18:47.391Z,9.27
2022-11-25T08:21:16.684Z,13.23
2022-11-25T08:23:47.474Z,10.35
2022-11-25T08:26:20.031Z,15.02
2022-11-25T08:28:48.342Z,13.85
2022-11-25T08:31:18.933Z,13.65
2022-11-25T08:33:47.820Z,13.35
2022-11-25T08:36:16.471Z,16.05
2022-11-25T08:38:45.098Z,13.38
2022-11-25T08:41:14.991Z,10.48
2022-11-25T08:43:44.511Z,13.43
2022-11-25T08:46:14.502Z,14.77
2022-11-25T08:48:43.088Z,14.57
2022-11-25T08:51:13.262Z,14.30
2022-11-25T08:53:42.733Z,17.15
2022-11-25T08:56:11.381Z,12.38
2022-11-25T08:58:39.803Z,10.23
2022-11-25T09:01:09.049Z,10.80
2022-11-25T09:03:39.662Z,20.00
2022-11-25T09:06:09.577Z,9.65
2022-11-25T09:08:38.664Z,12.75
2022-11-25T09:11:07.430Z,12.93
2022-11-25T09:13:35.404Z,12.43
2022-11-25T09:16:03.503Z,13.65
2022-11-25T09:18:33.092Z,14.05
2022-11-25T09:21:01.091Z,11.48
2022-11-25T09:23:28.766Z,17.70
2022-11-25T09:25:58.642Z,11.55
2022-11-25T09:28:27.467Z,13.93
2022-11-25T09:30:55.224Z,13.02
2022-11-25T09:33:23.488Z,15.35
2022-11-25T09:35:53.046Z,11.32
2022-11-25T09:38:20.769Z,11.70
2022-11-25T09:40:56.681Z,11.48
2022-11-25T09:43:57.277Z,13.27
2022-11-25T09:46:42.988Z,15.27
2022-11-25T09:49:22.589Z,11.85
2022-11-25T09:51:58.010Z,13.55
2022-11-25T09:54:30.793Z,12.05
2022-11-25T09:57:13.830Z,12.80
2022-11-25T09:59:50.583Z,13.85
2022-11-25T10:02:25.163Z,13.60
2022-11-25T10:04:56.272Z,16.00
2022-11-25T10:07:33.156Z,12.02
2022-11-25T10:10:03.929Z,11.82
2022-11-25T10:12:35.885Z,13.35
2022-11-25T10:15:08.041Z,16.02
2022-11-25T10:17:44.219Z,16.08
2022-11-25T10:20:20.496Z,13.77
2022-11-25T10:22:52.872Z,13.35
2022-11-25T10:25:24.773Z,13.65
2022-11-25T10:27:58.284Z,13.75
2022-11-25T10:30:28.155Z,13.18
2022-11-25T10:33:06.080Z,10.40
2022-11-25T10:35:39.126Z,15.45
2022-11-25T10:38:18.963Z,15.05
2022-11-25T10:40:49.478Z,18.10
2022-11-25T10:43:17.409Z,15.73
2022-11-25T10:45:49.847Z,15.73
2022-11-25T10:48:33.076Z,13.05
2022-11-25T10:51:15.566Z,11.80
2022-11-25T10:54:16.337Z,12.77
2022-11-25T10:56:47.048Z,18.83
2022-11-25T10:59:22.311Z,16.10
2022-11-25T11:01:51.131Z,12.07
2022-11-25T11:04:19.470Z,12.50
2022-11-25T11:06:49.812Z,11.25
2022-11-25T11:09:35.181Z,16.13
2022-11-25T11:12:17.248Z,10.77
2022-11-25T11:14:45.386Z,15.27
2022-11-25T11:17:36.333Z,12.50
2022-11-25T11:20:22.319Z,10.75
2022-11-25T11:22:55.996Z,14.27
2022-11-25T11:25:30.307Z,14.93
2022-11-25T11:27:58.368Z,15.68
2022-11-25T11:30:28.431Z,13.45
2022-11-25T11:33:00.159Z,14.82
2022-11-25T11:35:41.816Z,11.30
2022-11-25T11:38:28.781Z,14.32
2022-11-25T11:41:06.591Z,13.32
2022-11-25T11:44:07.616Z,14.63
2022-11-25T11:46:51.605Z,14.38
2022-11-25T11:49:41.979Z,11.68
2022-11-25T11:52:17.770Z,13.27
2022-11-25T11:54:47.736Z,15.18
2022-11-25T11:57:29.413Z,14.82
2022-11-25T11:59:59.595Z,9.65
2022-11-25T12:02:36.501Z,13.95
2022-11-25T12:05:15.158Z,10.82
2022-11-25T12:07:49.888Z,12.98
2022-11-25T12:10:23.660Z,11.30
2022-11-25T12:12:56.627Z,10.75
2022-11-25T12:15:35.062Z,15.85
2022-11-25T12:18:05.954Z,13.10
2022-11-25T12:20:39.749Z,13.50
2022-11-25T12:23:14.267Z,10.65
2022-11-25T12:25:43.907Z,14.45
2022-11-25T12:28:18.178Z,8.90
2022-11-25T12:31:03.360Z,9.00
2022-11-25T12:33:44.861Z,10.68
2022-11-25T12:36:18.903Z,14.20
2022-11-25T12:38:48.638Z,11.20
2022-11-25T12:41:26.242Z,12.98
2022-11-25T12:44:01.816Z,12.70
2022-11-25T12:46:37.721Z,14.38
2022-11-25T12:49:09.447Z,10.00
2022-11-25T12:52:09.481Z,11.00
2022-11-25T12:54:54.209Z,11.60
2022-11-25T12:58:02.034Z,12.38
2022-11-25T13:00:48.142Z,11.95
2022-11-25T13:03:40.852Z,13.52
2022-11-25T13:06:31.094Z,16.08
2022-11-25T13:09:04.801Z,11.68
2022-11-25T13:11:58.451Z,16.33
2022-11-25T13:14:33.022Z,14.90
2022-11-25T13:17:03.440Z,13.40
2022-11-25T13:19:36.828Z,11.90
2022-11-25T13:22:06.400Z,20.17
2022-11-25T13:24:39.297Z,13.68
2022-11-25T13:27:07.504Z,15.60
2022-11-25T13:30:03.296Z,10.95
2022-11-25T13:32:38.999Z,13.35
2022-11-25T13:35:40.167Z,14.75
2022-11-25T13:38:23.494Z,13.15
2022-11-25T13:40:58.212Z,11.85
2022-11-25T13:43:26.080Z,18.67
2022-11-25T13:45:54.335Z,14.32
2022-11-25T13:48:27.101Z,13.27
2022-11-25T13:51:16.304Z,11.10
2022-11-25T13:53:53.254Z,13.13
2022-11-25T13:56:28.640Z,14.20
2022-11-25T13:59:35.219Z,16.05
2022-11-25T14:02:44.760Z,17.40
2022-11-25T14:05:43.863Z,14.45
2022-11-25T14:08:21.216Z,11.98
2022-11-25T14:11:01.251Z,12.48
2022-11-25T14:13:52.054Z,13.68
2022-11-25T14:16:41.191Z,15.48
2022-11-25T14:22:40.170Z,14.68
2022-11-25T14:25:20.159Z,10.30
2022-11-25T14:27:51.415Z,9.52
2022-11-25T14:30:20.718Z,12.00
2022-11-25T14:32:57.827Z,11.45
2022-11-25T14:35:31.415Z,12.48
2022-11-25T14:38:05.555Z,12.43
2022-11-25T14:40:39.473Z,12.57
2022-11-25T14:43:16.105Z,8.80
2022-11-25T14:45:44.348Z,12.57
2022-11-25T14:48:16.366Z,10.30
2022-11-25T14:50:55.988Z,11.80
2022-11-25T14:53:26.816Z,13.60
2022-11-25T14:55:54.942Z,9.75
2022-11-25T14:58:23.087Z,14.32
2022-11-25T15:00:52.913Z,10.40
2022-11-25T15:03:21.603Z,10.80
2022-11-25T15:05:57.004Z,11.20
2022-11-25T15:08:26.791Z,11.88
2022-11-25T15:10:56.538Z,10.85
2022-11-25T15:13:34.710Z,14.27
2022-11-25T15:16:09.303Z,11.80
2022-11-25T15:18:39.238Z,17.58
2022-11-25T15:21:07.603Z,12.15
2022-11-25T15:23:38.975Z,10.00
2022-11-25T15:26:19.021Z,10.40
2022-11-25T15:28:47.299Z,11.82
2022-11-25T15:31:21.036Z,10.90
2022-11-25T15:33:54.883Z,12.02
2022-11-25T15:36:23.906Z,13.90
2022-11-25T15:38:53.626Z,26.77
2022-11-25T15:41:33.255Z,18.10
2022-11-25T15:44:02.874Z,17.42
2022-11-25T15:46:34.310Z,18.05
2022-11-25T15:49:05.779Z,17.55
2022-11-25T15:51:39.208Z,9.75
2022-11-25T15:54:18.445Z,11.32
2022-11-25T15:56:50.128Z,12.35
2022-11-25T15:59:41.128Z,15.98
2022-11-25T16:02:35.591Z,15.25
2022-11-25T16:05:24.293Z,11.82
2022-11-25T16:08:02.919Z,15.00
2022-11-25T16:10:34.639Z,13.35
2022-11-25T16:13:34.372Z,13.32
2022-11-25T16:16:22.575Z,14.70
2022-11-25T16:18:59.080Z,13.65
2022-11-25T16:21:30.530Z,15.63
2022-11-25T16:24:10.427Z,16.80
2022-11-25T16:26:49.509Z,13.40
2022-11-25T16:29:20.082Z,13.68
2022-11-25T16:31:48.199Z,12.40
2022-11-25T16:34:18.218Z,12.32
2022-11-25T16:36:45.990Z,13.65
2022-11-25T16:39:14.217Z,10.18
2022-11-25T16:41:46.148Z,11.55
2022-11-25T16:44:21.233Z,8.77
2022-11-25T16:46:49.728Z,11.40
2022-11-25T16:49:19.301Z,14.05
2022-11-25T16:51:47.137Z,12.68
2022-11-25T16:54:14.964Z,15.82
2022-11-25T16:56:45.344Z,15.18
2022-11-25T16:59:17.933Z,17.20
2022-11-25T17:01:46.593Z,16.83
2022-11-25T17:04:15.546Z,22.83
2022-11-25T17:06:50.500Z,21.00
2022-11-25T17:09:32.933Z,20.88
2022-11-25T17:12:02.441Z,24.08
2022-11-25T17:14:32.923Z,25.17
2022-11-25T17:17:01.843Z,24.00
2022-11-25T17:19:30.356Z,22.15
2022-11-25T17:21:58.679Z,19.38
2022-11-25T17:24:27.123Z,25.10
2022-11-25T17:26:57.920Z,25.95
2022-11-25T17:29:32.877Z,23.88
2022-11-25T17:32:01.139Z,18.90
2022-11-25T17:34:28.933Z,15.95
2022-11-25T17:36:57.717Z,11.68
2022-11-25T17:39:25.724Z,12.65
2022-11-25T17:41:53.462Z,15.07
2022-11-25T17:44:25.895Z,13.80
2022-11-25T17:46:58.213Z,15.57
2022-11-25T17:49:26.883Z,17.13
2022-11-25T17:51:54.717Z,13.90
2022-11-25T17:54:22.947Z,17.27
2022-11-25T17:56:52.567Z,14.23
2022-11-25T17:59:25.497Z,18.70
2022-11-25T18:01:55.991Z,22.10
2022-11-25T18:04:25.222Z,20.13
2022-11-25T18:06:53.557Z,16.30
2022-11-25T18:09:21.451Z,18.70
2022-11-25T18:11:53.026Z,22.23
2022-11-25T18:14:26.254Z,24.33
2022-11-25T18:16:56.399Z,21.75
2022-11-25T18:19:24.512Z,29.42
2022-11-25T18:21:52.757Z,31.10
2022-11-25T18:24:20.449Z,31.15
2022-11-25T18:26:50.898Z,29.42
2022-11-25T18:29:22.929Z,24.02
2022-11-25T18:31:51.367Z,31.73
2022-11-25T18:34:20.728Z,18.58
2022-11-25T18:36:48.701Z,20.48
2022-11-25T18:39:16.333Z,19.00
2022-11-25T18:41:45.561Z,23.13
2022-11-25T18:44:25.852Z,15.23
2022-11-25T18:46:54.940Z,21.40
2022-11-25T18:49:24.780Z,24.90
2022-11-25T18:51:52.523Z,25.38
2022-11-25T18:54:20.161Z,23.27
2022-11-25T18:56:52.029Z,21.38
2022-11-25T18:59:28.980Z,20.00
2022-11-25T19:01:56.838Z,18.25
2022-11-25T19:04:26.024Z,13.90
2022-11-25T19:06:53.899Z,13.90
2022-11-25T19:09:21.547Z,19.52
2022-11-25T19:11:53.437Z,9.90
2022-11-25T19:14:29.051Z,15.23
2022-11-25T19:16:59.874Z,10.15
2022-11-25T19:19:29.586Z,11.02
2022-11-25T19:22:02.095Z,14.52
2022-11-25T19:24:30.944Z,10.68
2022-11-25T19:26:58.967Z,11.55
2022-11-25T19:29:33.840Z,12.70
2022-11-25T19:32:05.183Z,8.20
2022-11-25T19:34:38.660Z,15.05
2022-11-25T19:37:06.661Z,8.43
2022-11-25T19:39:37.501Z,13.02
2022-11-25T19:42:05.397Z,11.48
2022-11-25T19:44:33.341Z,9.90
2022-11-25T19:47:15.126Z,9.30
2022-11-25T19:49:46.146Z,11.07
2022-11-25T19:52:17.068Z,14.48
2022-11-25T19:54:45.156Z,11.57
2022-11-25T19:57:17.557Z,15.60
2022-11-25T19:59:46.558Z,11.07
2022-11-25T20:02:16.866Z,10.90
2022-11-25T20:04:48.144Z,10.48
2022-11-25T20:07:19.277Z,9.25
2022-11-25T20:09:48.390Z,14.38
2022-11-25T20:12:22.113Z,12.80
2022-11-25T20:14:50.634Z,12.40
2022-11-25T20:17:25.489Z,12.30
2022-11-25T20:19:57.154Z,13.70
2022-11-25T20:22:29.359Z,15.65
2022-11-25T20:24:59.761Z,14.85
2022-11-25T20:27:28.916Z,11.55
2022-11-25T20:29:57.433Z,12.68
2022-11-25T20:32:29.474Z,13.32
2022-11-25T20:35:01.175Z,10.55
2022-11-25T20:37:40.465Z,10.30
2022-11-25T20:40:17.601Z,12.60
2022-11-25T20:42:46.601Z,10.52
2022-11-25T20:45:16.468Z,12.00
2022-11-25T20:47:44.804Z,11.32
2022-11-25T20:50:17.170Z,10.52
2022-11-25T20:52:46.877Z,9.68
2022-11-25T20:55:20.731Z,11.20
2022-11-25T20:57:50.622Z,13.35
2022-11-25T21:00:24.147Z,12.32
2022-11-25T21:02:52.445Z,11.85
2022-11-25T21:05:22.518Z,11.43
2022-11-25T21:07:51.810Z,12.38
2022-11-25T21:10:26.526Z,11.10
2022-11-25T21:12:55.002Z,12.55
2022-11-25T21:15:25.425Z,13.55
2022-11-25T21:17:53.407Z,8.93
2022-11-25T21:20:22.580Z,9.68
2022-11-25T21:22:55.013Z,13.13
2022-11-25T21:25:24.033Z,10.70
2022-11-25T21:27:53.212Z,13.85
2022-11-25T21:30:24.027Z,12.85
2022-11-25T21:32:54.563Z,8.65
2022-11-25T21:35:26.012Z,15.38
2022-11-25T21:37:54.046Z,15.32
2022-11-25T21:40:33.027Z,17.45
2022-11-25T21:43:01.442Z,23.15
2022-11-25T21:45:29.290Z,17.63
2022-11-25T21:47:57.028Z,19.35
2022-11-25T21:50:29.497Z,15.13
2022-11-25T21:52:57.652Z,26.17
2022-11-25T21:55:26.274Z,15.63
2022-11-25T21:57:54.210Z,16.33
2022-11-25T22:00:24.711Z,21.52
2022-11-25T22:02:53.201Z,16.73
2022-11-25T22:05:25.374Z,18.60
2022-11-25T22:07:55.034Z,10.95
2022-11-25T22:10:23.682Z,15.75
2022-11-25T22:12:51.765Z,13.65
2022-11-25T22:15:22.107Z,13.10
2022-11-25T22:17:54.250Z,12.43
2022-11-25T22:20:28.880Z,13.68
2022-11-25T22:22:58.025Z,12.93
2022-11-25T22:25:27.730Z,13.35
2022-11-25T22:27:55.506Z,12.70
2022-11-25T22:30:24.837Z,17.33
2022-11-25T22:33:00.844Z,12.23
2022-11-25T22:35:29.234Z,14.07
2022-11-25T22:37:58.432Z,7.32
2022-11-25T22:40:26.413Z,10.27
2022-11-25T22:42:57.023Z,8.88
2022-11-25T22:45:30.449Z,13.40
2022-11-25T22:47:59.366Z,10.18
2022-11-25T22:50:29.709Z,10.43
2022-11-25T22:53:00.369Z,17.58
2022-11-25T22:55:29.887Z,11.98
2022-11-25T22:58:00.167Z,10.77
2022-11-25T23:00:29.494Z,14.68
2022-11-25T23:02:59.223Z,11.82
2022-11-25T23:05:32.497Z,10.63
2022-11-25T23:08:03.217Z,10.95
2022-11-25T23:10:32.892Z,16.17
2022-11-25T23:13:00.811Z,11.38
2022-11-25T23:15:28.640Z,10.73
2022-11-25T23:17:58.442Z,13.68
2022-11-25T23:20:30.268Z,10.48
2022-11-25T23:22:59.127Z,14.25
2022-11-25T23:25:28.242Z,11.27
2022-11-25T23:27:55.975Z,12.52
2022-11-25T23:30:24.619Z,12.25
2022-11-25T23:32:54.447Z,14.45
2022-11-25T23:35:28.423Z,19.30
2022-11-25T23:37:57.748Z,20.63
2022-11-25T23:40:28.605Z,20.23
2022-11-25T23:42:57.422Z,22.30
2022-11-25T23:45:27.516Z,16.67
2022-11-25T23:47:57.209Z,28.08
2022-11-25T23:50:29.170Z,26.63
2022-11-25T23:53:00.896Z,38.13
2022-11-25T23:55:32.138Z,30.73
2022-11-25T23:58:01.643Z,22.95
